Time;durP1;ratioP1;P1;durP2;ratioP2;P2;SDS_P1;SDS_P2;PMS_P1;PMS_P2;Temp;Humidity;BMP_temperature;BMP_pressure;BME280_temperature;BME280_humidity;BME280_pressure;Samples;Min_cycle;Max_cycle;Signal;HPM_P1;HPM_P2
2021/12/29 00:00:43;;;;;;;30.80;10.90;;;5.80;99.90;;;;;;5116775;28;20036;-51
2021/12/29 00:03:10;;;;;;;24.30;9.75;;;5.80;99.90;;;;;;5084970;28;20055;-48
2021/12/29 00:05:36;;;;;;;23.85;10.68;;;5.80;99.90;;;;;;5076530;28;20036;-49
2021/12/29 00:08:03;;;;;;;30.27;10.75;;;5.90;99.90;;;;;;5111847;28;20475;-49
2021/12/29 00:10:31;;;;;;;;;;;5.90;99.90;;;;;;5112719;27;20132;-50
2021/12/29 00:12:57;;;;;;;28.73;11.18;;;5.90;99.90;;;;;;5114086;28;19930;-47
2021/12/29 00:15:27;;;;;;;33.50;12.05;;;5.90;99.90;;;;;;5113168;28;20047;-50
2021/12/29 00:17:55;;;;;;;28.77;11.82;;;5.90;99.90;;;;;;5094601;28;20035;-48
2021/12/29 00:20:28;;;;;;;23.42;10.55;;;5.90;99.90;;;;;;5082685;28;20106;-49
2021/12/29 00:22:56;;;;;;;27.45;12.00;;;5.90;99.90;;;;;;5066968;28;20071;-50
2021/12/29 00:25:22;;;;;;;21.10;10.27;;;5.90;99.90;;;;;;5048690;28;20044;-48
2021/12/29 00:27:48;;;;;;;24.23;10.52;;;5.90;99.90;;;;;;5114078;28;20036;-46
2021/12/29 00:30:14;;;;;;;23.45;10.88;;;5.90;99.90;;;;;;5094504;28;20359;-50
2021/12/29 00:32:41;;;;;;;25.42;10.93;;;5.90;99.90;;;;;;5082767;28;20040;-49
2021/12/29 00:35:11;;;;;;;21.55;10.43;;;5.90;99.90;;;;;;5077595;28;20488;-48
2021/12/29 00:37:38;;;;;;;21.77;9.65;;;5.90;99.90;;;;;;5069690;28;20052;-49
2021/12/29 00:40:04;;;;;;;18.35;8.65;;;5.90;99.90;;;;;;5113646;28;20110;-48
2021/12/29 00:42:30;;;;;;;21.88;9.73;;;5.90;99.90;;;;;;5113277;28;20036;-46
2021/12/29 00:44:56;;;;;;;18.50;8.93;;;5.90;99.90;;;;;;5093237;28;20047;-49
2021/12/29 00:47:22;;;;;;;18.55;8.00;;;5.90;99.90;;;;;;5075370;28;20752;-47
2021/12/29 00:49:48;;;;;;;20.35;8.65;;;5.90;99.90;;;;;;5092742;28;20054;-51
2021/12/29 00:52:16;;;;;;;21.95;8.73;;;5.90;99.90;;;;;;5091713;28;20138;-50
2021/12/29 00:54:44;;;;;;;21.77;8.13;;;5.90;99.90;;;;;;5124527;27;20040;-46
2021/12/29 00:57:10;;;;;;;24.80;9.57;;;5.90;99.90;;;;;;5103675;28;20506;-48
2021/12/29 00:59:36;;;;;;;18.95;9.00;;;5.90;99.90;;;;;;5092366;28;20123;-48
2021/12/29 01:02:03;;;;;;;27.38;9.45;;;5.90;99.90;;;;;;5100954;28;20499;-49
2021/12/29 01:04:29;;;;;;;26.65;10.05;;;5.90;99.90;;;;;;5111359;27;20047;-51
2021/12/29 01:06:55;;;;;;;25.27;10.05;;;5.90;99.90;;;;;;5103931;28;20039;-48
2021/12/29 01:09:21;;;;;;;29.73;10.38;;;5.90;99.90;;;;;;5088594;28;20774;-47
2021/12/29 01:11:47;;;;;;;22.45;9.13;;;5.90;99.90;;;;;;5076795;28;20048;-47
2021/12/29 01:14:14;;;;;;;34.97;10.50;;;5.90;99.90;;;;;;5093057;28;20092;-47
2021/12/29 01:16:41;;;;;;;30.20;10.02;;;6.00;99.90;;;;;;5068782;28;20036;-46
2021/12/29 01:19:19;;;;;;;32.10;10.10;;;6.00;99.90;;;;;;5107027;28;20122;-47
2021/12/29 01:21:46;;;;;;;;;;;6.00;99.90;;;;;;5112497;28;20393;-46
2021/12/29 01:24:13;;;;;;;32.13;9.63;;;6.00;99.90;;;;;;5108467;28;19958;-47
2021/12/29 01:26:43;;;;;;;34.25;10.15;;;6.00;99.90;;;;;;5092967;28;20111;-49
2021/12/29 01:29:13;;;;;;;34.05;9.63;;;6.00;99.90;;;;;;5093453;28;20084;-47
2021/12/29 01:31:40;;;;;;;45.75;12.10;;;6.00;99.90;;;;;;5093517;28;20040;-48
2021/12/29 01:34:06;;;;;;;40.90;11.45;;;6.00;99.90;;;;;;5092703;28;20481;-49
2021/12/29 01:36:34;;;;;;;42.90;11.60;;;6.00;99.90;;;;;;5111988;28;20499;-49
2021/12/29 01:39:01;;;;;;;46.42;11.95;;;6.00;99.90;;;;;;5060051;28;20044;-50
2021/12/29 01:41:27;;;;;;;47.15;12.30;;;6.00;99.90;;;;;;5089619;28;20051;-47
2021/12/29 01:43:53;;;;;;;38.80;12.13;;;6.00;99.90;;;;;;5089755;28;20158;-48
2021/12/29 01:46:22;;;;;;;44.33;12.38;;;6.00;99.90;;;;;;5094515;28;20032;-48
2021/12/29 01:48:49;;;;;;;38.83;12.40;;;6.00;99.90;;;;;;5090445;28;20032;-49
2021/12/29 01:51:19;;;;;;;40.92;12.55;;;6.00;99.90;;;;;;5057550;28;20149;-49
2021/12/29 01:54:04;;;;;;;44.33;12.38;;;6.10;99.90;;;;;;5070333;28;20398;-46
2021/12/29 01:56:31;;;;;;;50.53;13.73;;;6.10;99.90;;;;;;5074987;28;20375;-49
2021/12/29 01:58:58;;;;;;;49.63;13.70;;;6.10;99.90;;;;;;5062616;28;20043;-48
2021/12/29 02:01:24;;;;;;;51.53;13.75;;;6.10;99.90;;;;;;5071082;28;20047;-47
2021/12/29 02:03:52;;;;;;;48.90;15.00;;;6.10;99.90;;;;;;5080615;28;20390;-47
2021/12/29 02:06:19;;;;;;;57.22;15.88;;;6.10;99.90;;;;;;5090369;28;20032;-50
2021/12/29 02:08:45;;;;;;;61.85;15.68;;;6.10;99.90;;;;;;5053354;28;20483;-47
2021/12/29 02:11:11;;;;;;;48.50;14.35;;;6.20;99.90;;;;;;5073484;28;20050;-46
2021/12/29 02:13:38;;;;;;;53.58;14.60;;;6.10;99.90;;;;;;5054500;28;20170;-48
2021/12/29 02:16:04;;;;;;;49.25;14.05;;;6.20;99.90;;;;;;5071588;28;20074;-50
2021/12/29 02:18:31;;;;;;;52.10;14.57;;;6.20;99.90;;;;;;5053029;28;20046;-49
2021/12/29 02:20:57;;;;;;;59.30;14.07;;;6.20;99.90;;;;;;5085014;28;20109;-46
2021/12/29 02:23:33;;;;;;;47.30;13.70;;;6.20;99.90;;;;;;5063560;28;20482;-50
2021/12/29 02:25:59;;;;;;;49.60;14.68;;;6.20;99.90;;;;;;5038945;28;20129;-50
2021/12/29 02:28:33;;;;;;;50.78;15.73;;;6.20;99.90;;;;;;5064038;28;20087;-46
2021/12/29 02:31:01;;;;;;;58.17;17.17;;;6.20;99.90;;;;;;5075487;28;20051;-47
2021/12/29 02:33:30;;;;;;;57.63;17.10;;;6.20;99.90;;;;;;5058255;28;20094;-49
2021/12/29 02:35:58;;;;;;;50.65;16.85;;;6.20;99.90;;;;;;5085742;28;20040;-48
2021/12/29 02:38:34;;;;;;;54.67;16.45;;;6.30;99.90;;;;;;5055707;28;20618;-47
2021/12/29 02:41:05;;;;;;;51.38;15.82;;;6.30;99.90;;;;;;5091891;28;20048;-48
2021/12/29 02:43:37;;;;;;;55.20;16.50;;;6.30;99.90;;;;;;5087939;28;20048;-51
2021/12/29 02:46:11;;;;;;;57.35;16.17;;;6.30;99.90;;;;;;5101251;28;20354;-46
2021/12/29 02:48:41;;;;;;;50.15;15.52;;;6.30;99.90;;;;;;5080190;28;20096;-47
2021/12/29 02:51:08;;;;;;;44.95;13.75;;;6.30;99.90;;;;;;5078778;28;20040;-48
2021/12/29 02:53:35;;;;;;;42.33;14.48;;;6.30;99.90;;;;;;5095864;28;20377;-47
2021/12/29 02:56:03;;;;;;;44.42;13.65;;;6.30;99.90;;;;;;5078401;28;20044;-49
2021/12/29 02:58:31;;;;;;;46.22;13.50;;;6.30;99.90;;;;;;5101939;28;20036;-46
2021/12/29 03:01:04;;;;;;;50.55;13.70;;;6.30;99.90;;;;;;5103556;28;20119;-48
2021/12/29 03:03:36;;;;;;;39.17;12.40;;;6.40;99.90;;;;;;5096475;27;20042;-48
2021/12/29 03:06:08;;;;;;;36.65;11.88;;;6.40;99.90;;;;;;5088038;28;20044;-47
2021/12/29 03:08:34;;;;;;;36.72;11.18;;;6.40;99.90;;;;;;5080207;28;20048;-47
2021/12/29 03:11:03;;;;;;;36.95;11.52;;;6.40;99.90;;;;;;5060005;28;20122;-47
2021/12/29 03:13:33;;;;;;;42.08;11.02;;;6.40;99.90;;;;;;5090375;28;20405;-46
2021/12/29 03:15:59;;;;;;;36.83;10.82;;;6.40;99.90;;;;;;5058923;28;20044;-48
2021/12/29 03:18:26;;;;;;;40.90;10.95;;;6.40;99.90;;;;;;5082750;28;20474;-47
2021/12/29 03:20:52;;;;;;;33.78;10.15;;;6.40;99.90;;;;;;5095692;28;20051;-47
2021/12/29 03:23:19;;;;;;;37.70;10.57;;;6.40;99.90;;;;;;5089394;28;20114;-48
2021/12/29 03:25:49;;;;;;;38.10;10.02;;;6.50;99.90;;;;;;5083780;28;20055;-48
2021/12/29 03:28:20;;;;;;;42.70;11.50;;;6.50;99.90;;;;;;5090897;28;20074;-47
2021/12/29 03:30:50;;;;;;;49.97;12.57;;;6.50;99.90;;;;;;5074213;28;20063;-46
2021/12/29 03:33:20;;;;;;;53.92;13.10;;;6.50;99.90;;;;;;5089611;28;20051;-47
2021/12/29 03:35:49;;;;;;;51.22;13.27;;;6.50;99.90;;;;;;5071890;28;20062;-49
2021/12/29 03:38:18;;;;;;;52.28;11.75;;;6.50;99.90;;;;;;5056632;28;20055;-47
2021/12/29 03:40:45;;;;;;;52.60;12.40;;;6.50;99.90;;;;;;5089045;28;20048;-47
2021/12/29 03:43:12;;;;;;;55.10;13.38;;;6.50;99.90;;;;;;5074609;28;20059;-47
2021/12/29 03:45:41;;;;;;;54.25;13.07;;;6.60;99.90;;;;;;5049051;28;20365;-47
2021/12/29 03:48:09;;;;;;;53.08;13.02;;;6.50;99.90;;;;;;5105931;28;20054;-48
2021/12/29 03:50:37;;;;;;;56.25;14.40;;;6.50;99.90;;;;;;5089282;28;20107;-47
2021/12/29 03:53:04;;;;;;;48.97;13.32;;;6.60;99.90;;;;;;5071823;28;20040;-47
2021/12/29 03:55:31;;;;;;;51.60;14.30;;;6.60;99.90;;;;;;5075875;28;20067;-47
2021/12/29 03:57:57;;;;;;;51.60;13.70;;;6.60;99.90;;;;;;5073401;28;20508;-47
2021/12/29 04:00:23;;;;;;;61.58;14.48;;;6.60;99.90;;;;;;5096167;28;20039;-47
2021/12/29 04:02:49;;;;;;;47.22;14.50;;;6.60;99.90;;;;;;5087206;28;20176;-47
2021/12/29 04:05:20;;;;;;;66.40;16.08;;;6.60;99.90;;;;;;5063819;28;20044;-46
2021/12/29 04:07:46;;;;;;;59.97;16.00;;;6.60;99.90;;;;;;5078640;28;20382;-48
2021/12/29 04:10:12;;;;;;;57.78;14.63;;;6.60;99.90;;;;;;5038945;28;20498;-46
2021/12/29 04:12:39;;;;;;;50.72;15.23;;;6.60;99.90;;;;;;5073472;28;20552;-50
2021/12/29 04:15:10;;;;;;;58.03;15.23;;;6.60;99.90;;;;;;5064752;28;20069;-46
2021/12/29 04:17:38;;;;;;;61.53;17.02;;;6.60;99.90;;;;;;5081984;28;20043;-46
2021/12/29 04:22:55;;;;;;;50.72;14.75;;;6.60;99.90;;;;;;5096939;28;20055;-47
2021/12/29 04:25:24;;;;;;;51.03;15.73;;;6.60;99.90;;;;;;5096691;28;20050;-46
2021/12/29 04:27:55;;;;;;;54.88;15.95;;;6.60;99.90;;;;;;5061095;28;20063;-46
2021/12/29 04:30:24;;;;;;;62.00;16.48;;;6.60;99.90;;;;;;5077128;28;20040;-47
2021/12/29 04:32:52;;;;;;;61.83;16.45;;;6.60;99.90;;;;;;5092030;28;20059;-47
2021/12/29 04:35:22;;;;;;;56.92;15.50;;;6.60;99.90;;;;;;5102002;28;20048;-47
2021/12/29 04:37:49;;;;;;;58.90;15.90;;;6.60;99.90;;;;;;5091758;28;20056;-47
2021/12/29 04:40:16;;;;;;;61.20;16.08;;;6.60;99.90;;;;;;5120881;28;20048;-47
2021/12/29 04:42:43;;;;;;;54.55;16.50;;;6.60;99.90;;;;;;5079780;28;20044;-48
2021/12/29 04:45:10;;;;;;;61.22;17.02;;;6.60;99.90;;;;;;5070995;28;20488;-46
2021/12/29 04:47:40;;;;;;;59.88;17.05;;;6.70;99.90;;;;;;5076733;28;20078;-46
2021/12/29 04:50:18;;;;;;;56.80;16.50;;;6.70;99.90;;;;;;5073314;28;20040;-47
2021/12/29 04:52:45;;;;;;;52.40;15.48;;;6.60;99.90;;;;;;5081257;28;20040;-48
2021/12/29 04:55:11;;;;;;;60.25;15.73;;;6.70;99.90;;;;;;5063582;28;20290;-47
2021/12/29 04:57:37;;;;;;;56.35;15.57;;;6.60;99.90;;;;;;5076341;28;20113;-46
2021/12/29 05:00:06;;;;;;;54.78;15.98;;;6.60;99.90;;;;;;5096639;28;20135;-48
2021/12/29 05:02:32;;;;;;;42.33;14.73;;;6.70;99.90;;;;;;5058197;28;20052;-50
2021/12/29 05:05:07;;;;;;;54.72;17.73;;;6.60;99.90;;;;;;5098670;28;20043;-47
2021/12/29 05:10:33;;;;;;;51.35;17.90;;;6.70;99.90;;;;;;5058224;28;20401;-47
2021/12/29 05:12:59;;;;;;;77.32;19.23;;;6.70;99.90;;;;;;5082858;28;20303;-47
2021/12/29 05:15:25;;;;;;;54.58;18.60;;;6.70;99.90;;;;;;5074533;28;20036;-47
2021/12/29 05:17:51;;;;;;;61.92;18.20;;;6.70;99.90;;;;;;5073930;28;20139;-46
2021/12/29 05:20:17;;;;;;;64.47;18.58;;;6.70;99.90;;;;;;5111346;27;20122;-46
2021/12/29 05:22:43;;;;;;;55.05;18.33;;;6.70;99.90;;;;;;5092613;28;20063;-47
2021/12/29 05:25:10;;;;;;;56.15;17.15;;;6.70;99.90;;;;;;5095173;28;20071;-48
2021/12/29 05:27:36;;;;;;;50.15;17.05;;;6.70;99.90;;;;;;5079848;28;20055;-47
2021/12/29 05:30:03;;;;;;;50.55;16.27;;;6.70;99.90;;;;;;5090726;28;20044;-47
2021/12/29 05:32:30;;;;;;;50.22;17.55;;;6.70;99.90;;;;;;5078426;28;20082;-46
2021/12/29 05:34:57;;;;;;;50.42;16.27;;;6.70;99.90;;;;;;5063589;28;20072;-47
2021/12/29 05:37:23;;;;;;;48.75;16.02;;;6.70;99.90;;;;;;5072691;28;20063;-47
2021/12/29 05:39:49;;;;;;;62.08;17.50;;;6.70;99.90;;;;;;5119207;27;20460;-46
2021/12/29 05:42:17;;;;;;;49.05;16.17;;;6.70;99.90;;;;;;5056205;28;20299;-48
2021/12/29 05:44:43;;;;;;;47.97;14.82;;;6.70;99.90;;;;;;5073091;28;20071;-46
2021/12/29 05:47:09;;;;;;;46.70;15.55;;;6.80;99.90;;;;;;5085361;28;20452;-47
2021/12/29 05:49:35;;;;;;;44.72;16.63;;;6.80;99.90;;;;;;5080473;28;20044;-47
2021/12/29 05:52:01;;;;;;;50.10;15.77;;;6.80;99.90;;;;;;5088662;28;20063;-47
2021/12/29 05:54:27;;;;;;;44.10;15.32;;;6.80;99.90;;;;;;5065017;28;20043;-47
2021/12/29 05:56:54;;;;;;;44.63;14.73;;;6.80;99.90;;;;;;5107623;27;20040;-48
2021/12/29 05:59:20;;;;;;;46.55;15.30;;;6.80;99.90;;;;;;5064238;28;20543;-47
2021/12/29 06:01:46;;;;;;;45.30;16.10;;;6.80;99.90;;;;;;5071346;28;20042;-47
2021/12/29 06:04:12;;;;;;;41.33;15.13;;;6.80;99.90;;;;;;5109039;28;20055;-47
2021/12/29 06:06:38;;;;;;;51.88;16.23;;;6.80;99.90;;;;;;5081862;28;20044;-48
2021/12/29 06:09:04;;;;;;;43.97;15.35;;;6.80;99.90;;;;;;5113049;27;20135;-48
2021/12/29 06:11:30;;;;;;;55.03;16.10;;;6.80;99.90;;;;;;5101534;28;20272;-47
2021/12/29 06:13:56;;;;;;;51.22;17.10;;;6.80;99.90;;;;;;5072546;28;20032;-50
2021/12/29 06:16:22;;;;;;;46.58;14.65;;;6.80;99.90;;;;;;5073422;28;20082;-47
2021/12/29 06:18:48;;;;;;;43.30;16.35;;;6.80;99.90;;;;;;5090482;28;20474;-47
2021/12/29 06:21:16;;;;;;;41.90;15.38;;;6.80;99.90;;;;;;5102731;28;20048;-46
2021/12/29 06:23:44;;;;;;;46.90;15.07;;;6.80;99.90;;;;;;5110204;27;20504;-46
2021/12/29 06:26:10;;;;;;;51.65;16.40;;;6.80;99.90;;;;;;5100376;28;20505;-47
2021/12/29 06:28:36;;;;;;;50.78;15.07;;;6.80;99.90;;;;;;5072074;28;20497;-48
2021/12/29 06:31:03;;;;;;;46.70;15.63;;;6.80;99.90;;;;;;5091696;28;20051;-46
2021/12/29 06:33:29;;;;;;;46.25;15.70;;;6.80;99.90;;;;;;5046979;28;20058;-46
2021/12/29 06:35:56;;;;;;;46.60;15.00;;;6.90;99.90;;;;;;5106345;27;20067;-47
2021/12/29 06:38:22;;;;;;;48.95;15.85;;;6.90;99.90;;;;;;5073026;28;20405;-46
2021/12/29 06:40:49;;;;;;;42.45;15.88;;;6.90;99.90;;;;;;5074713;28;20153;-47
2021/12/29 06:43:15;;;;;;;37.60;15.25;;;6.90;99.90;;;;;;5090355;28;20444;-47
2021/12/29 06:45:42;;;;;;;48.90;16.00;;;6.90;99.90;;;;;;5106282;28;20488;-49
2021/12/29 06:48:08;;;;;;;48.85;15.13;;;6.90;99.90;;;;;;5109422;27;20081;-47
2021/12/29 06:50:34;;;;;;;45.95;15.60;;;6.90;99.90;;;;;;5108744;27;20414;-47
2021/12/29 06:53:00;;;;;;;51.97;16.92;;;6.90;99.90;;;;;;5075466;28;20149;-49
2021/12/29 06:55:26;;;;;;;48.72;16.35;;;6.90;99.90;;;;;;5093724;28;20132;-46
2021/12/29 06:57:52;;;;;;;44.13;15.80;;;6.90;99.90;;;;;;5089629;28;20044;-46
2021/12/29 07:00:20;;;;;;;52.25;17.50;;;6.90;99.90;;;;;;5091148;28;20111;-47
2021/12/29 07:02:46;;;;;;;50.00;17.15;;;6.90;99.90;;;;;;5074055;28;20047;-47
2021/12/29 07:05:12;;;;;;;50.23;16.67;;;6.90;99.90;;;;;;5116866;27;20127;-46
2021/12/29 07:07:38;;;;;;;41.28;15.48;;;6.90;99.90;;;;;;5110362;27;20127;-47
2021/12/29 07:10:06;;;;;;;38.03;14.90;;;7.00;99.90;;;;;;5084401;28;20048;-47
2021/12/29 07:12:31;;;;;;;54.28;17.00;;;6.90;99.90;;;;;;5095020;28;20051;-46
2021/12/29 07:14:57;;;;;;;46.58;15.75;;;7.00;99.90;;;;;;5082721;28;20432;-46
2021/12/29 07:17:23;;;;;;;45.63;16.52;;;7.00;99.90;;;;;;5077382;28;20043;-47
2021/12/29 07:19:49;;;;;;;49.17;16.67;;;7.00;99.90;;;;;;5082684;28;20157;-47
2021/12/29 07:22:15;;;;;;;65.47;17.25;;;7.00;99.90;;;;;;5074011;28;20488;-48
2021/12/29 07:24:41;;;;;;;51.25;15.85;;;6.90;99.90;;;;;;5112795;27;20454;-47
2021/12/29 07:27:07;;;;;;;56.58;17.45;;;7.00;99.90;;;;;;5077518;28;20031;-46
2021/12/29 07:29:33;;;;;;;64.95;17.65;;;7.00;99.90;;;;;;5090033;28;20072;-47
2021/12/29 07:32:02;;;;;;;62.08;17.77;;;7.00;99.90;;;;;;5072646;28;20044;-48
2021/12/29 07:34:30;;;;;;;62.28;17.08;;;7.00;99.90;;;;;;5114723;27;20046;-47
2021/12/29 07:36:56;;;;;;;51.65;17.08;;;7.00;99.90;;;;;;5071129;28;20508;-47
2021/12/29 07:39:23;;;;;;;58.97;17.25;;;7.00;99.90;;;;;;5079487;28;20457;-48
2021/12/29 07:41:49;;;;;;;55.95;18.48;;;7.00;99.90;;;;;;5084603;28;20490;-48
2021/12/29 07:44:17;;;;;;;77.50;19.30;;;7.00;99.90;;;;;;5054141;28;20070;-47
2021/12/29 07:46:47;;;;;;;59.15;17.88;;;7.00;99.90;;;;;;5098896;28;20058;-47
2021/12/29 07:49:13;;;;;;;68.78;19.33;;;7.00;99.90;;;;;;5089638;28;20514;-47
2021/12/29 07:51:41;;;;;;;60.40;18.00;;;7.00;99.90;;;;;;5039448;28;20051;-47
2021/12/29 07:54:07;;;;;;;66.90;17.80;;;7.00;99.90;;;;;;5088011;28;20043;-47
2021/12/29 07:56:33;;;;;;;67.30;17.10;;;7.00;99.90;;;;;;5067949;28;20044;-47
2021/12/29 07:58:59;;;;;;;59.72;17.83;;;7.00;99.90;;;;;;5068921;28;20050;-49
2021/12/29 08:01:25;;;;;;;76.90;17.77;;;7.00;99.90;;;;;;5105027;28;20104;-48
2021/12/29 08:03:51;;;;;;;58.00;15.68;;;7.00;99.90;;;;;;5072297;28;20497;-47
2021/12/29 08:06:20;;;;;;;51.42;16.67;;;7.00;99.90;;;;;;5105021;28;20070;-47
2021/12/29 08:08:47;;;;;;;72.88;18.70;;;7.00;99.90;;;;;;5104180;28;20112;-48
2021/12/29 08:11:14;;;;;;;66.20;16.70;;;7.00;99.90;;;;;;5086926;28;20040;-49
2021/12/29 08:13:40;;;;;;;57.90;16.58;;;7.00;99.90;;;;;;5106399;28;20039;-47
2021/12/29 08:16:06;;;;;;;60.42;16.52;;;7.00;99.90;;;;;;5085135;28;20042;-47
2021/12/29 08:18:32;;;;;;;56.13;16.80;;;7.00;99.90;;;;;;5086157;28;20043;-47
2021/12/29 08:20:58;;;;;;;64.28;16.17;;;7.10;99.90;;;;;;5086726;28;20104;-48
2021/12/29 08:23:25;;;;;;;59.42;16.98;;;7.10;99.90;;;;;;5102439;28;20043;-48
2021/12/29 08:25:51;;;;;;;;;;;7.10;99.90;;;;;;5068179;28;20135;-47
2021/12/29 08:28:18;;;;;;;53.60;14.27;;;7.10;99.90;;;;;;5101298;28;20025;-47
2021/12/29 08:30:46;;;;;;;55.95;14.85;;;7.10;99.90;;;;;;5089317;28;20093;-47
2021/12/29 08:33:12;;;;;;;61.20;14.98;;;7.10;99.90;;;;;;5058270;28;20048;-47
2021/12/29 08:35:39;;;;;;;58.05;15.07;;;7.10;99.90;;;;;;5107929;28;20038;-48
2021/12/29 08:38:05;;;;;;;50.60;16.20;;;7.10;99.90;;;;;;5093110;28;20040;-49
2021/12/29 08:40:31;;;;;;;49.83;14.55;;;7.40;99.90;;;;;;5074264;28;20593;-47
2021/12/29 08:42:59;;;;;;;52.97;15.82;;;7.20;99.90;;;;;;5076377;28;20517;-48
2021/12/29 08:45:27;;;;;;;56.30;15.40;;;7.20;99.90;;;;;;5092629;28;20343;-47
2021/12/29 08:47:55;;;;;;;61.08;15.73;;;7.20;99.90;;;;;;5077109;28;20043;-48
2021/12/29 08:50:23;;;;;;;56.13;15.00;;;7.20;99.90;;;;;;5069177;28;20123;-47
2021/12/29 08:56:42;;;;;;;48.63;13.15;;;7.20;99.90;;;;;;5114542;28;20034;-47
2021/12/29 08:59:10;;;;;;;44.78;13.23;;;7.30;99.90;;;;;;5082241;28;20441;-49
2021/12/29 09:01:38;;;;;;;49.75;14.65;;;7.30;99.90;;;;;;5093634;28;20174;-47
2021/12/29 09:04:04;;;;;;;75.13;16.30;;;7.30;99.90;;;;;;5058158;28;20051;-48
2021/12/29 09:06:29;;;;;;;50.03;14.02;;;7.30;99.90;;;;;;5082990;28;20047;-47
2021/12/29 09:08:55;;;;;;;54.25;14.93;;;7.30;99.90;;;;;;5116155;27;20048;-47
2021/12/29 09:11:23;;;;;;;50.50;13.75;;;7.30;99.90;;;;;;5062504;28;20035;-48
2021/12/29 09:13:49;;;;;;;43.83;13.60;;;7.30;99.90;;;;;;5124871;27;20044;-47
2021/12/29 09:16:15;;;;;;;49.63;15.35;;;7.30;99.90;;;;;;5108576;28;20044;-48
2021/12/29 09:18:41;;;;;;;43.55;13.40;;;7.40;99.90;;;;;;5088765;28;20036;-47
2021/12/29 09:21:13;;;;;;;52.60;14.98;;;7.40;99.90;;;;;;5077159;28;20609;-48
2021/12/29 09:23:39;;;;;;;47.28;14.93;;;7.40;99.90;;;;;;5072848;28;20039;-48
2021/12/29 09:26:05;;;;;;;43.70;13.63;;;7.40;99.90;;;;;;5113747;27;20490;-50
2021/12/29 09:28:32;;;;;;;43.70;13.70;;;7.40;99.90;;;;;;5084191;28;20079;-47
2021/12/29 09:31:02;;;;;;;50.42;12.73;;;7.40;99.90;;;;;;5081856;28;20147;-47
2021/12/29 09:33:28;;;;;;;48.53;13.90;;;7.40;99.90;;;;;;5110791;28;20404;-50
2021/12/29 09:36:01;;;;;;;46.63;12.70;;;7.50;99.90;;;;;;5091729;28;20400;-50
2021/12/29 09:38:34;;;;;;;39.72;12.82;;;7.50;99.90;;;;;;5118937;27;20607;-47
2021/12/29 09:41:03;;;;;;;40.63;13.43;;;7.60;99.90;;;;;;5063305;28;20425;-47
2021/12/29 09:43:31;;;;;;;44.67;13.20;;;7.60;99.90;;;;;;5075475;28;20112;-48
2021/12/29 09:45:59;;;;;;;;;;;7.60;99.90;;;;;;5073052;28;20081;-51
2021/12/29 09:48:26;;;;;;;74.82;61.97;;;7.60;99.90;;;;;;5099559;28;19920;-48
2021/12/29 09:50:53;;;;;;;73.40;63.35;;;7.70;99.90;;;;;;5093483;28;20044;-49
2021/12/29 09:53:20;;;;;;;52.80;13.75;;;7.70;99.90;;;;;;5056654;28;20120;-49
2021/12/29 09:55:46;;;;;;;45.45;12.88;;;7.70;99.90;;;;;;5082243;28;20051;-49
2021/12/29 09:58:14;;;;;;;62.30;14.52;;;7.70;99.90;;;;;;5095502;28;20032;-49
2021/12/29 10:01:04;;;;;;;79.88;64.22;;;7.70;99.90;;;;;;5069097;28;20053;-48
2021/12/29 10:03:33;;;;;;;46.25;12.48;;;7.70;99.90;;;;;;5051274;28;20130;-47
2021/12/29 10:06:02;;;;;;;43.60;11.63;;;7.80;99.90;;;;;;5070308;28;20221;-49
2021/12/29 10:08:35;;;;;;;47.33;12.10;;;7.70;99.90;;;;;;5061034;28;20059;-48
2021/12/29 10:11:06;;;;;;;39.10;12.43;;;7.80;99.90;;;;;;5082703;28;20169;-49
2021/12/29 10:13:36;;;;;;;50.00;13.27;;;7.80;99.90;;;;;;5079511;28;20413;-49
2021/12/29 10:16:06;;;;;;;44.95;11.43;;;7.80;99.90;;;;;;5088491;28;20093;-51
2021/12/29 10:18:34;;;;;;;42.90;11.88;;;7.80;99.90;;;;;;5070158;28;20051;-50
2021/12/29 10:21:13;;;;;;;67.10;12.60;;;7.80;99.90;;;;;;5075315;28;20048;-48
2021/12/29 10:23:47;;;;;;;41.33;11.68;;;7.80;99.90;;;;;;5073295;28;20132;-52
2021/12/29 10:26:20;;;;;;;36.80;11.27;;;7.80;99.90;;;;;;5052738;28;20501;-50
2021/12/29 10:29:07;;;;;;;40.92;11.63;;;7.90;99.90;;;;;;5068781;28;20051;-49
2021/12/29 10:31:38;;;;;;;42.20;11.20;;;7.90;99.90;;;;;;5067935;28;20062;-50
2021/12/29 10:34:14;;;;;;;47.95;12.73;;;8.00;99.90;;;;;;5077750;28;20128;-47
2021/12/29 10:36:43;;;;;;;37.80;11.52;;;8.00;99.90;;;;;;5084108;28;20048;-51
2021/12/29 10:39:19;;;;;;;40.85;12.30;;;8.00;99.90;;;;;;5075401;28;20044;-48
2021/12/29 10:41:51;;;;;;;34.47;10.90;;;8.00;99.90;;;;;;5075963;28;20054;-47
2021/12/29 10:44:34;;;;;;;37.53;11.32;;;8.00;99.90;;;;;;5089225;28;20427;-49
2021/12/29 10:47:02;;;;;;;38.83;11.35;;;8.10;99.90;;;;;;5072139;28;20062;-47
2021/12/29 10:49:29;;;;;;;37.03;11.57;;;8.10;99.90;;;;;;5049827;28;20111;-48
2021/12/29 10:51:58;;;;;;;35.17;11.65;;;8.10;99.90;;;;;;5056368;28;20097;-50
2021/12/29 10:54:28;;;;;;;33.05;10.63;;;8.10;99.90;;;;;;5077877;28;20052;-47
2021/12/29 10:57:04;;;;;;;31.95;10.05;;;8.10;99.90;;;;;;5048659;28;20125;-48
2021/12/29 10:59:33;;;;;;;23.60;9.98;;;8.20;99.90;;;;;;5047468;28;20171;-52
2021/12/29 11:02:00;;;;;;;28.85;10.43;;;8.10;99.90;;;;;;5063052;28;20517;-48
2021/12/29 11:04:26;;;;;;;;;;;8.20;99.90;;;;;;5088865;28;20094;-48
2021/12/29 11:14:34;;;;;;;23.52;8.98;;;8.20;99.90;;;;;;5057018;28;20315;-48
2021/12/29 11:17:05;;;;;;;27.15;9.90;;;8.20;99.90;;;;;;5087022;28;20105;-48
2021/12/29 11:19:31;;;;;;;34.17;10.82;;;8.20;99.90;;;;;;5082973;28;20048;-51
2021/12/29 11:22:16;;;;;;;27.35;10.38;;;8.20;99.90;;;;;;5052959;28;20103;-49
2021/12/29 11:24:43;;;;;;;24.88;10.30;;;8.30;99.90;;;;;;5039335;28;20067;-50
2021/12/29 11:27:15;;;;;;;29.50;9.15;;;8.30;99.90;;;;;;5067285;28;20043;-49
2021/12/29 11:30:09;;;;;;;29.63;9.85;;;8.30;99.90;;;;;;5071652;28;20060;-48
2021/12/29 11:32:40;;;;;;;240.75;129.75;;;8.20;99.90;;;;;;5083619;28;20835;-52
2021/12/29 11:35:20;;;;;;;100.55;63.30;;;8.30;99.90;;;;;;5056988;28;20116;-48
2021/12/29 11:37:49;;;;;;;35.55;19.25;;;8.30;99.90;;;;;;5075523;28;20521;-48
2021/12/29 11:40:23;;;;;;;36.03;18.63;;;8.40;99.90;;;;;;5094896;28;20048;-49
2021/12/29 11:42:51;;;;;;;31.33;14.15;;;8.50;99.90;;;;;;5088800;28;20044;-49
2021/12/29 11:45:18;;;;;;;26.83;10.13;;;8.60;99.90;;;;;;5090593;28;20048;-48
2021/12/29 11:47:46;;;;;;;23.23;11.25;;;8.70;99.90;;;;;;5098967;28;20584;-48
2021/12/29 11:50:19;;;;;;;22.83;8.63;;;8.80;99.90;;;;;;5065011;28;20038;-51
2021/12/29 11:53:04;;;;;;;22.55;9.00;;;8.90;99.90;;;;;;5086446;28;20063;-49
2021/12/29 11:55:33;;;;;;;20.00;8.32;;;9.00;99.90;;;;;;5086473;28;20062;-49
2021/12/29 11:58:24;;;;;;;20.77;8.55;;;9.00;99.90;;;;;;5075408;28;20072;-49
2021/12/29 12:01:23;;;;;;;20.13;8.70;;;9.00;99.90;;;;;;5080646;28;20123;-48
2021/12/29 12:03:52;;;;;;;22.55;12.43;;;9.00;99.90;;;;;;5067700;28;20075;-48
2021/12/29 12:06:22;;;;;;;19.48;8.88;;;9.00;99.90;;;;;;5084218;28;20078;-48
2021/12/29 12:28:31;;;;;;;40.33;22.63;;;8.80;99.90;;;;;;5069613;28;20033;-50
2021/12/29 12:30:57;;;;;;;21.58;11.75;;;8.70;99.90;;;;;;5081660;28;20067;-48
2021/12/29 12:33:29;;;;;;;26.40;11.05;;;8.70;99.90;;;;;;5041856;28;20444;-48
2021/12/29 12:36:05;;;;;;;18.73;8.27;;;8.80;99.90;;;;;;5072831;28;20044;-48
2021/12/29 12:38:34;;;;;;;17.95;8.13;;;9.00;99.90;;;;;;5080710;28;20048;-48
2021/12/29 12:41:14;;;;;;;28.60;10.20;;;9.00;99.90;;;;;;5084772;28;20097;-49
2021/12/29 12:43:49;;;;;;;45.85;37.00;;;9.00;99.90;;;;;;5040243;28;20048;-48
2021/12/29 12:46:14;;;;;;;20.45;8.77;;;9.00;99.90;;;;;;5066073;28;20039;-49
2021/12/29 12:48:41;;;;;;;22.50;8.55;;;9.00;99.90;;;;;;5079631;28;20040;-49
2021/12/29 12:51:18;;;;;;;23.27;11.80;;;9.10;99.90;;;;;;5062649;28;20032;-49
2021/12/29 12:53:45;;;;;;;21.42;9.77;;;9.00;99.90;;;;;;5053389;28;20053;-49
2021/12/29 12:56:19;;;;;;;19.08;7.47;;;9.10;99.90;;;;;;5060180;28;20406;-48
2021/12/29 12:58:48;;;;;;;13.65;6.60;;;9.10;99.90;;;;;;5069573;28;20041;-48
2021/12/29 13:01:16;;;;;;;19.02;10.50;;;9.10;99.90;;;;;;5067744;28;20064;-49
2021/12/29 13:03:45;;;;;;;17.27;8.43;;;9.10;99.90;;;;;;5070561;28;20048;-49
2021/12/29 13:06:22;;;;;;;22.98;9.70;;;9.00;99.90;;;;;;5077491;28;20111;-49
2021/12/29 13:08:51;;;;;;;15.77;7.90;;;9.00;99.90;;;;;;5043508;28;20040;-50
2021/12/29 13:11:22;;;;;;;70.55;63.25;;;9.00;99.90;;;;;;5064225;28;20063;-49
2021/12/29 13:13:53;;;;;;;70.28;63.60;;;9.00;99.90;;;;;;5094439;28;20079;-48
2021/12/29 13:16:23;;;;;;;70.82;64.00;;;9.00;99.90;;;;;;5095370;28;20063;-49
2021/12/29 13:18:50;;;;;;;68.53;61.90;;;8.90;99.90;;;;;;5077761;28;20151;-50
2021/12/29 13:21:29;;;;;;;66.85;60.90;;;8.90;99.90;;;;;;5103842;28;20096;-49
2021/12/29 13:24:00;;;;;;;66.35;60.25;;;8.90;99.90;;;;;;5093182;28;20035;-49